Time;durP1;ratioP1;P1;durP2;ratioP2;P2;SDS_P1;SDS_P2;PMS_P1;PMS_P2;Temp;Humidity;BMP_temperature;BMP_pressure;BME280_temperature;BME280_humidity;BME280_pressure;Samples;Min_cycle;Max_cycle;Signal;HPM_P1;HPM_P2
2021/04/25 04:12:54;;;;;;;0.90;0.90;;;6.90;99.90;;;;;;4954423;29;20297;-76
2021/04/25 04:15:20;;;;;;;1.00;1.00;;;7.00;99.90;;;;;;4954756;28;20579;-76
2021/04/25 04:17:53;;;;;;;0.97;0.97;;;6.80;99.90;;;;;;4956861;28;20656;-78
2021/04/25 04:20:20;;;;;;;1.17;1.17;;;6.80;99.90;;;;;;4957365;28;20670;-77
2021/04/25 04:22:47;;;;;;;1.00;1.00;;;6.70;99.90;;;;;;4955906;28;20209;-77
2021/04/25 04:25:14;;;;;;;1.03;1.03;;;6.50;99.90;;;;;;4954890;28;20205;-77
2021/04/25 04:27:41;;;;;;;0.83;0.83;;;6.50;99.90;;;;;;4955610;28;20209;-77
2021/04/25 04:30:10;;;;;;;0.80;0.80;;;6.60;99.90;;;;;;4956566;28;20264;-77
2021/04/25 04:32:37;;;;;;;0.93;0.93;;;6.60;99.90;;;;;;4955997;28;20296;-77
2021/04/25 04:35:05;;;;;;;1.00;1.00;;;6.40;99.90;;;;;;4956840;28;20213;-78
2021/04/25 04:37:32;;;;;;;1.00;1.00;;;6.40;99.90;;;;;;4952678;28;20212;-77
2021/04/25 04:39:59;;;;;;;0.90;0.90;;;6.40;99.90;;;;;;4955008;28;20202;-77
2021/04/25 04:42:26;;;;;;;0.90;0.90;;;6.40;99.90;;;;;;4936777;29;20269;-77
2021/04/25 04:44:53;;;;;;;1.00;1.00;;;6.40;99.90;;;;;;4937477;29;20565;-77
2021/04/25 04:47:21;;;;;;;1.00;1.00;;;6.20;99.90;;;;;;4936692;29;20221;-77
2021/04/25 04:49:48;;;;;;;0.97;0.97;;;6.20;99.90;;;;;;4936162;29;20663;-77
2021/04/25 04:52:15;;;;;;;1.00;1.00;;;6.10;99.90;;;;;;4941968;29;20221;-77
2021/04/25 04:54:44;;;;;;;1.00;1.00;;;6.10;99.90;;;;;;4944991;29;20686;-78
2021/04/25 04:57:15;;;;;;;1.07;1.07;;;6.10;99.90;;;;;;4937314;29;20206;-77
2021/04/25 04:59:42;;;;;;;0.90;0.90;;;6.20;99.90;;;;;;4935185;29;20349;-77
2021/04/25 05:02:09;;;;;;;1.00;1.00;;;6.40;99.90;;;;;;4935819;29;20605;-78
2021/04/25 05:04:37;;;;;;;0.93;0.93;;;6.60;99.90;;;;;;4940237;28;20210;-77
2021/04/25 05:07:03;;;;;;;0.90;0.90;;;6.90;99.90;;;;;;4936816;29;20206;-77
2021/04/25 05:09:31;;;;;;;0.90;0.90;;;;;;;;;;4935587;29;20206;-77
2021/04/25 05:11:58;;;;;;;0.80;0.80;;;7.20;99.40;;;;;;4934559;29;20297;-77
2021/04/25 05:14:25;;;;;;;1.00;1.00;;;7.30;99.60;;;;;;4934830;29;20281;-77
2021/04/25 05:16:52;;;;;;;1.00;1.00;;;7.40;99.10;;;;;;4934999;29;20221;-77
2021/04/25 05:19:19;;;;;;;0.90;0.90;;;7.60;98.90;;;;;;4937110;29;20210;-77
2021/04/25 05:21:47;;;;;;;1.10;1.10;;;7.60;98.50;;;;;;4941888;29;20230;-77
2021/04/25 05:24:14;;;;;;;1.10;1.10;;;7.70;98.40;;;;;;4944427;29;20206;-77
2021/04/25 05:26:41;;;;;;;0.90;0.90;;;7.80;98.30;;;;;;4940745;29;20258;-77
2021/04/25 05:29:08;;;;;;;1.00;1.00;;;8.00;97.80;;;;;;4948449;29;20210;-77
2021/04/25 05:31:35;;;;;;;1.00;1.00;;;8.00;97.80;;;;;;4942223;29;20226;-76
2021/04/25 05:34:02;;;;;;;0.97;0.97;;;8.10;98.20;;;;;;4944481;29;20297;-77
2021/04/25 05:36:29;;;;;;;0.90;0.90;;;8.20;98.30;;;;;;4942651;29;20254;-77
2021/04/25 05:38:56;;;;;;;0.90;0.90;;;8.20;98.80;;;;;;4940212;29;20206;-77
2021/04/25 05:41:23;;;;;;;0.80;0.80;;;8.30;98.70;;;;;;4938035;29;20597;-77
2021/04/25 05:43:50;;;;;;;0.90;0.90;;;8.40;98.30;;;;;;4939322;29;20202;-77
2021/04/25 05:46:18;;;;;;;0.87;0.87;;;8.50;97.90;;;;;;4938896;29;20210;-78
2021/04/25 05:48:45;;;;;;;0.80;0.80;;;8.50;98.00;;;;;;4937317;29;20631;-76
2021/04/25 05:51:13;;;;;;;0.80;0.80;;;8.30;97.90;;;;;;4938235;29;20699;-77
2021/04/25 05:53:41;;;;;;;1.00;1.00;;;8.30;97.90;;;;;;4937472;28;20225;-76
2021/04/25 05:56:09;;;;;;;0.80;0.80;;;8.40;98.00;;;;;;4937021;29;20210;-77
2021/04/25 05:58:37;;;;;;;0.80;0.80;;;8.00;98.50;;;;;;4937435;29;20214;-76
2021/04/25 06:01:04;;;;;;;0.80;0.80;;;8.00;99.00;;;;;;4939158;29;20234;-78
2021/04/25 06:03:31;;;;;;;0.90;0.90;;;8.00;98.70;;;;;;4943243;29;20206;-79
2021/04/25 06:05:58;;;;;;;0.77;0.77;;;7.70;99.00;;;;;;4942474;29;20603;-79
2021/04/25 06:08:25;;;;;;;0.90;0.90;;;7.50;99.20;;;;;;4958463;29;20664;-79
2021/04/25 06:10:52;;;;;;;1.00;1.00;;;8.00;98.70;;;;;;4960818;28;20240;-79
2021/04/25 06:13:20;;;;;;;0.80;0.80;;;8.30;98.40;;;;;;4961158;28;20209;-79
2021/04/25 06:15:47;;;;;;;0.93;0.93;;;7.90;98.60;;;;;;4960923;28;20225;-79
2021/04/25 06:18:14;;;;;;;1.00;1.00;;;8.10;98.80;;;;;;4960741;28;20260;-78
2021/04/25 06:20:41;;;;;;;0.73;0.73;;;8.50;98.10;;;;;;4959246;28;20225;-78
2021/04/25 06:23:09;;;;;;;0.90;0.90;;;8.80;97.10;;;;;;4960199;28;20312;-79
2021/04/25 06:25:35;;;;;;;0.90;0.90;;;8.60;97.10;;;;;;4959691;28;20205;-79
2021/04/25 06:28:03;;;;;;;0.90;0.90;;;8.40;97.50;;;;;;4960210;28;20243;-79
2021/04/25 06:30:30;;;;;;;0.90;0.90;;;8.60;97.40;;;;;;4960416;28;20237;-80
2021/04/25 06:32:57;;;;;;;0.70;0.70;;;8.90;96.20;;;;;;4958874;28;20257;-78
2021/04/25 06:35:24;;;;;;;0.90;0.90;;;9.20;96.20;;;;;;4956068;28;20252;-77
2021/04/25 06:37:51;;;;;;;0.80;0.80;;;9.10;96.40;;;;;;4956130;28;20209;-77
2021/04/25 06:40:18;;;;;;;0.80;0.80;;;8.70;99.90;;;;;;4955705;28;20213;-76
2021/04/25 06:42:45;;;;;;;0.80;0.80;;;8.80;96.40;;;;;;4955855;28;20212;-77
2021/04/25 06:45:14;;;;;;;0.80;0.80;;;8.60;96.80;;;;;;4956900;28;20742;-77
2021/04/25 06:47:42;;;;;;;0.80;0.80;;;9.00;96.40;;;;;;4956906;28;20209;-78
2021/04/25 06:50:11;;;;;;;0.60;0.60;;;9.50;95.90;;;;;;4956955;28;20205;-77
2021/04/25 06:52:39;;;;;;;0.70;0.70;;;9.80;95.30;;;;;;4959307;28;20205;-79
2021/04/25 06:55:08;;;;;;;0.70;0.70;;;9.70;94.50;;;;;;4959199;28;20229;-78
2021/04/25 06:57:35;;;;;;;0.85;0.85;;;10.00;94.00;;;;;;4958929;28;20205;-79
2021/04/25 07:00:04;;;;;;;0.82;0.82;;;10.10;93.20;;;;;;4957965;28;20217;-79
2021/04/25 07:02:32;;;;;;;0.80;0.80;;;10.10;93.40;;;;;;4958484;28;21006;-79
2021/04/25 07:05:00;;;;;;;0.90;0.90;;;10.40;92.80;;;;;;4957665;28;20205;-80
2021/04/25 07:07:27;;;;;;;0.95;0.95;;;10.40;92.90;;;;;;4958734;28;20209;-79
2021/04/25 07:09:54;;;;;;;0.80;0.80;;;10.40;92.80;;;;;;4958961;28;20205;-78
2021/04/25 07:12:21;;;;;;;0.70;0.70;;;10.50;92.90;;;;;;4958604;28;20288;-80
2021/04/25 07:14:48;;;;;;;0.70;0.70;;;10.60;92.10;;;;;;4959245;28;20229;-78
2021/04/25 07:17:15;;;;;;;0.80;0.80;;;10.70;90.60;;;;;;4956365;29;20624;-76
2021/04/25 07:19:42;;;;;;;0.80;0.80;;;10.00;90.70;;;;;;4968897;28;20240;-79
2021/04/25 07:22:10;;;;;;;0.70;0.70;;;9.90;90.70;;;;;;4964694;28;20312;-78
2021/04/25 07:24:37;;;;;;;0.80;0.80;;;10.00;99.70;;;;;;4973421;28;20237;-77
2021/04/25 07:27:05;;;;;;;0.68;0.68;;;9.90;90.80;;;;;;4976561;28;20232;-79
2021/04/25 07:29:32;;;;;;;0.70;0.70;;;10.30;91.10;;;;;;4973732;28;20209;-78
2021/04/25 07:31:59;;;;;;;0.70;0.70;;;10.80;90.50;;;;;;4972367;28;20221;-78
2021/04/25 07:34:26;;;;;;;0.70;0.70;;;11.10;90.00;;;;;;4972961;28;20228;-77
2021/04/25 07:36:54;;;;;;;0.70;0.70;;;11.30;88.60;;;;;;4971081;28;20334;-78
2021/04/25 07:39:22;;;;;;;0.70;0.70;;;11.50;87.80;;;;;;4963126;28;20756;-79
2021/04/25 07:41:49;;;;;;;0.60;0.60;;;11.20;85.00;;;;;;4950128;29;20280;-79
2021/04/25 07:44:17;;;;;;;0.70;0.70;;;11.10;84.90;;;;;;4941272;28;20194;-78
2021/04/25 07:46:44;;;;;;;0.70;0.70;;;11.30;80.70;;;;;;4939266;29;20206;-77
2021/04/25 07:49:12;;;;;;;0.70;0.70;;;10.80;81.60;;;;;;4939379;29;20202;-78
2021/04/25 07:51:38;;;;;;;0.70;0.70;;;11.30;82.90;;;;;;4939402;29;20774;-79
2021/04/25 07:54:06;;;;;;;0.70;0.70;;;11.50;85.90;;;;;;4941285;29;20317;-78
2021/04/25 07:56:33;;;;;;;0.70;0.70;;;11.50;83.00;;;;;;4941259;29;20246;-78
2021/04/25 07:59:00;;;;;;;0.60;0.60;;;11.80;80.10;;;;;;4947437;29;20662;-78
2021/04/25 08:01:33;;;;;;;0.70;0.70;;;11.40;80.70;;;;;;4958795;29;20279;-77
2021/04/25 08:04:00;;;;;;;0.60;0.60;;;11.30;79.50;;;;;;4958368;28;20202;-78
2021/04/25 08:06:27;;;;;;;0.50;0.50;;;11.80;76.20;;;;;;4944497;28;20206;-77
2021/04/25 08:08:55;;;;;;;0.60;0.60;;;12.20;74.20;;;;;;4935122;29;20667;-77
2021/04/25 08:11:22;;;;;;;0.60;0.60;;;12.40;73.70;;;;;;4938528;29;20324;-78
2021/04/25 08:13:50;;;;;;;0.60;0.60;;;12.80;71.90;;;;;;4952908;28;20205;-77
2021/04/25 08:16:17;;;;;;;0.60;0.60;;;12.90;70.50;;;;;;4953120;28;20198;-77
2021/04/25 08:18:44;;;;;;;0.60;0.60;;;12.70;70.00;;;;;;4952166;28;20201;-77
2021/04/25 08:21:11;;;;;;;0.68;0.68;;;12.90;67.20;;;;;;4942246;28;20214;-76
2021/04/25 08:23:38;;;;;;;0.55;0.55;;;12.80;66.20;;;;;;4943433;28;20639;-78
2021/04/25 08:26:06;;;;;;;0.50;0.50;;;12.70;67.20;;;;;;4951991;29;20685;-76
2021/04/25 08:28:33;;;;;;;0.60;0.60;;;12.50;73.60;;;;;;4948325;28;20647;-76
2021/04/25 08:31:01;;;;;;;0.63;0.63;;;12.20;69.60;;;;;;4937937;28;20224;-76
2021/04/25 08:33:28;;;;;;;0.60;0.60;;;12.20;68.30;;;;;;4938950;29;20210;-78
2021/04/25 08:35:55;;;;;;;0.60;0.60;;;12.60;69.40;;;;;;4934908;29;20317;-76
2021/04/25 08:38:22;;;;;;;0.50;0.50;;;12.90;67.20;;;;;;4943727;29;20234;-76
2021/04/25 08:40:49;;;;;;;0.60;0.60;;;13.00;68.80;;;;;;4953081;28;20225;-77
2021/04/25 08:43:16;;;;;;;0.68;0.68;;;12.90;68.80;;;;;;4949375;29;20201;-77
2021/04/25 08:45:46;;;;;;;0.50;0.50;;;12.90;67.70;;;;;;4951878;28;20213;-77
2021/04/25 08:48:15;;;;;;;0.50;0.50;;;13.10;67.20;;;;;;4934906;29;20229;-77
2021/04/25 08:50:42;;;;;;;0.60;0.60;;;13.20;66.70;;;;;;4934456;29;20229;-77
2021/04/25 08:53:11;;;;;;;0.40;0.40;;;13.10;66.10;;;;;;4948036;29;20210;-77
2021/04/25 08:55:38;;;;;;;0.60;0.60;;;13.30;66.20;;;;;;4955204;28;20228;-77
2021/04/25 08:58:08;;;;;;;0.57;0.57;;;13.50;67.20;;;;;;4957522;28;20606;-78
2021/04/25 09:00:35;;;;;;;0.60;0.60;;;13.10;68.10;;;;;;4939759;28;20240;-76
2021/04/25 09:03:03;;;;;;;0.60;0.60;;;12.70;71.60;;;;;;4949869;29;20201;-77
2021/04/25 09:05:30;;;;;;;0.50;0.50;;;12.60;66.80;;;;;;4953459;28;20201;-77
2021/04/25 09:07:59;;;;;;;0.60;0.60;;;12.60;66.60;;;;;;4949580;28;20651;-77
2021/04/25 09:10:31;;;;;;;0.70;0.70;;;12.10;93.00;;;;;;4951034;29;20205;-76
2021/04/25 09:12:58;;;;;;;0.70;0.70;;;11.90;68.00;;;;;;4958481;28;20209;-77
2021/04/25 09:15:27;;;;;;;0.60;0.60;;;11.60;68.60;;;;;;4959152;28;20229;-77
2021/04/25 09:17:56;;;;;;;0.68;0.68;;;11.80;70.30;;;;;;4963141;28;20791;-77
2021/04/25 09:20:36;;;;;;;0.65;0.65;;;12.00;92.40;;;;;;4964587;28;20201;-77
2021/04/25 09:23:04;;;;;;;0.70;0.70;;;12.00;70.50;;;;;;4963596;29;20201;-77
2021/04/25 09:25:31;;;;;;;0.50;0.50;;;12.30;65.90;;;;;;4966431;28;20224;-77
2021/04/25 09:28:16;;;;;;;0.68;0.68;;;12.40;65.30;;;;;;4967252;28;20887;-76
2021/04/25 09:30:57;;;;;;;0.60;0.60;;;12.70;65.80;;;;;;4966253;28;20668;-76
2021/04/25 09:33:27;;;;;;;0.68;0.68;;;12.40;63.50;;;;;;4965175;28;20210;-77
2021/04/25 09:35:56;;;;;;;0.60;0.60;;;12.90;62.20;;;;;;4960027;28;20233;-78
2021/04/25 09:38:23;;;;;;;0.50;0.50;;;13.30;64.20;;;;;;4960149;28;20202;-77
2021/04/25 09:40:51;;;;;;;0.50;0.50;;;12.70;61.10;;;;;;4961313;28;20221;-77
2021/04/25 09:43:19;;;;;;;0.60;0.60;;;13.10;62.10;;;;;;4963957;28;20198;-77
2021/04/25 09:45:47;;;;;;;0.50;0.50;;;13.10;61.30;;;;;;4956301;28;20635;-78
2021/04/25 09:48:28;;;;;;;0.50;0.50;;;13.30;60.60;;;;;;4957770;29;20209;-77
2021/04/25 09:51:16;;;;;;;0.55;0.55;;;12.70;62.10;;;;;;4956868;28;20717;-77
2021/04/25 09:53:58;;;;;;;0.60;0.60;;;12.90;63.10;;;;;;4955317;28;20205;-77
2021/04/25 09:56:36;;;;;;;0.60;0.60;;;12.80;62.10;;;;;;4955296;29;20212;-79
2021/04/25 09:59:05;;;;;;;0.70;0.70;;;12.70;63.00;;;;;;4957460;28;20216;-78
2021/04/25 10:01:34;;;;;;;0.57;0.57;;;12.50;63.50;;;;;;4956807;28;20312;-77
2021/04/25 10:04:03;;;;;;;0.60;0.60;;;12.80;62.90;;;;;;4958779;28;20651;-78
2021/04/25 10:06:49;;;;;;;0.65;0.65;;;12.60;63.50;;;;;;4958264;28;21057;-78
2021/04/25 10:09:16;;;;;;;0.60;0.60;;;12.20;62.50;;;;;;4957343;28;20635;-78
2021/04/25 10:11:43;;;;;;;0.60;0.60;;;12.40;63.10;;;;;;4957190;28;20237;-77
2021/04/25 10:14:11;;;;;;;0.60;0.60;;;12.90;62.60;;;;;;4957288;28;20209;-77
2021/04/25 10:16:41;;;;;;;0.50;0.50;;;13.00;61.30;;;;;;4962147;28;20216;-74
2021/04/25 10:19:08;;;;;;;0.50;0.50;;;13.30;61.20;;;;;;4964837;28;20563;-77
2021/04/25 10:24:57;;;;;;;0.63;0.63;;;13.10;92.40;;;;;;6011889;23;20347;-77
2021/04/25 10:27:26;;;;;;;0.52;0.52;;;13.30;62.50;;;;;;4984081;28;20672;-75
2021/04/25 10:29:57;;;;;;;0.60;0.60;;;13.20;63.60;;;;;;4989425;28;20650;-75
2021/04/25 10:32:24;;;;;;;0.50;0.50;;;13.10;63.70;;;;;;4991989;28;20200;-76
2021/04/25 10:35:18;;;;;;;0.60;0.60;;;12.80;64.40;;;;;;4995739;28;20228;-78
2021/04/25 10:37:47;;;;;;;0.70;0.70;;;12.80;64.30;;;;;;4995190;28;20302;-79
2021/04/25 10:40:31;;;;;;;0.60;0.60;;;13.50;61.30;;;;;;5015891;23;20224;-76
2021/04/25 10:43:09;;;;;;;0.50;0.50;;;13.30;60.20;;;;;;4997112;28;20196;-75
2021/04/25 10:45:55;;;;;;;0.60;0.60;;;13.40;60.10;;;;;;4997713;28;20192;-75
2021/04/25 10:48:27;;;;;;;0.50;0.50;;;13.30;60.60;;;;;;4994941;28;20227;-78
2021/04/25 10:51:14;;;;;;;0.60;0.60;;;13.30;60.10;;;;;;4975038;28;20215;-77
2021/04/25 10:53:43;;;;;;;0.60;0.60;;;13.00;60.40;;;;;;4973077;28;20231;-77
2021/04/25 10:56:23;;;;;;;0.60;0.60;;;13.00;59.60;;;;;;4977219;28;20224;-77
2021/04/25 10:59:29;;;;;;;0.50;0.50;;;12.00;93.10;;;;;;4979235;28;20208;-78
2021/04/25 11:01:59;;;;;;;0.63;0.63;;;12.00;62.30;;;;;;4988276;28;20200;-76
2021/04/25 11:04:56;;;;;;;0.60;0.60;;;12.20;62.40;;;;;;4994439;28;20193;-76
2021/04/25 11:07:40;;;;;;;0.65;0.65;;;12.10;63.20;;;;;;4987226;28;20205;-78
2021/04/25 11:10:08;;;;;;;0.80;0.80;;;12.30;64.00;;;;;;4991127;28;20220;-79
2021/04/25 11:12:40;;;;;;;0.60;0.60;;;12.50;62.20;;;;;;4978645;28;20239;-80
2021/04/25 11:15:09;;;;;;;0.60;0.60;;;12.80;62.70;;;;;;4977884;28;20644;-82
2021/04/25 11:17:37;;;;;;;0.70;0.70;;;12.50;61.80;;;;;;4976926;28;20228;-78
2021/04/25 11:20:30;;;;;;;0.60;0.60;;;12.90;61.30;;;;;;4975652;28;20707;-79
2021/04/25 11:23:03;;;;;;;0.63;0.63;;;12.70;61.30;;;;;;4958982;28;20212;-81
2021/04/25 11:25:32;;;;;;;0.60;0.60;;;12.60;60.80;;;;;;4976234;28;20193;-79
2021/04/25 11:28:00;;;;;;;0.60;0.60;;;12.50;61.20;;;;;;4976994;28;20197;-80
2021/04/25 11:30:38;;;;;;;0.60;0.60;;;12.60;61.50;;;;;;4977815;28;20283;-81
2021/04/25 11:33:32;;;;;;;0.60;0.60;;;12.80;61.60;;;;;;4972018;28;20208;-78
2021/04/25 11:36:37;;;;;;;0.57;0.57;;;13.00;59.90;;;;;;4971594;28;20328;-79
2021/04/25 11:39:06;;;;;;;0.60;0.60;;;13.00;61.20;;;;;;4975735;28;20852;-79
2021/04/25 11:41:33;;;;;;;0.52;0.52;;;13.10;61.80;;;;;;4975704;28;20196;-78
2021/04/25 11:44:00;;;;;;;0.68;0.68;;;13.30;61.60;;;;;;4975575;28;20201;-78
2021/04/25 11:46:32;;;;;;;0.57;0.57;;;13.10;62.30;;;;;;4975842;28;20204;-78
2021/04/25 11:49:01;;;;;;;0.60;0.60;;;13.00;90.80;;;;;;4975266;28;20225;-78
2021/04/25 11:51:29;;;;;;;0.50;0.50;;;13.00;61.70;;;;;;4976920;28;20200;-77
2021/04/25 11:53:56;;;;;;;0.60;0.60;;;13.40;61.50;;;;;;4977324;28;20200;-77
2021/04/25 11:56:32;;;;;;;0.50;0.50;;;13.20;63.20;;;;;;4975448;28;20224;-77
2021/04/25 11:59:07;;;;;;;0.60;0.60;;;13.20;87.40;;;;;;4971028;28;20204;-78
2021/04/25 12:01:34;;;;;;;0.60;0.60;;;13.10;58.30;;;;;;4980983;28;20199;-75
2021/04/25 12:04:03;;;;;;;0.60;0.60;;;13.30;58.60;;;;;;4989842;28;20638;-75
2021/04/25 12:06:45;;;;;;;0.60;0.60;;;13.20;59.00;;;;;;4991229;28;20197;-75
2021/04/25 12:09:13;;;;;;;0.60;0.60;;;13.20;58.90;;;;;;4991934;28;20215;-77
2021/04/25 12:11:40;;;;;;;0.50;0.50;;;13.30;59.10;;;;;;4987759;28;20181;-79
2021/04/25 12:14:18;;;;;;;0.60;0.60;;;13.50;59.30;;;;;;4977449;28;20216;-78
2021/04/25 12:16:45;;;;;;;0.60;0.60;;;13.10;60.20;;;;;;4978282;28;20235;-78
2021/04/25 12:19:21;;;;;;;0.60;0.60;;;13.10;60.60;;;;;;4976640;28;20275;-77
2021/04/25 12:21:48;;;;;;;0.60;0.60;;;13.20;59.70;;;;;;4974769;28;20677;-77
2021/04/25 12:24:19;;;;;;;0.60;0.60;;;13.20;59.30;;;;;;4974537;28;20205;-76
2021/04/25 12:26:47;;;;;;;0.60;0.60;;;13.10;59.90;;;;;;4974672;28;20192;-77
2021/04/25 12:29:14;;;;;;;0.60;0.60;;;12.80;60.60;;;;;;4977322;28;20216;-80
2021/04/25 12:31:43;;;;;;;0.70;0.70;;;12.40;60.70;;;;;;4981008;28;20196;-79
2021/04/25 12:34:14;;;;;;;0.70;0.70;;;12.30;62.50;;;;;;4981213;28;20207;-79
2021/04/25 12:36:50;;;;;;;0.60;0.60;;;12.20;63.20;;;;;;4981164;28;20228;-79
2021/04/25 12:39:17;;;;;;;0.70;0.70;;;12.20;64.00;;;;;;4983095;28;20232;-81
2021/04/25 12:41:46;;;;;;;0.65;0.65;;;12.20;63.30;;;;;;4983484;28;20204;-80
2021/04/25 12:44:15;;;;;;;0.70;0.70;;;12.20;63.70;;;;;;4984278;28;20200;-77
2021/04/25 12:46:52;;;;;;;0.65;0.65;;;12.10;64.80;;;;;;4984456;28;20247;-80
2021/04/25 12:49:19;;;;;;;0.70;0.70;;;12.10;65.00;;;;;;4979042;28;20770;-77
2021/04/25 12:51:48;;;;;;;0.75;0.75;;;12.10;65.50;;;;;;4981651;28;20212;-81
2021/04/25 12:54:16;;;;;;;0.70;0.70;;;12.30;64.70;;;;;;4977520;28;20208;-78
2021/04/25 12:56:52;;;;;;;0.60;0.60;;;12.30;65.60;;;;;;4978966;28;20224;-77
2021/04/25 12:59:21;;;;;;;0.82;0.82;;;12.10;66.30;;;;;;4979112;28;20223;-78
2021/04/25 13:02:07;;;;;;;0.70;0.70;;;11.80;66.50;;;;;;4976834;28;20645;-81
2021/04/25 13:04:36;;;;;;;0.70;0.70;;;11.40;68.30;;;;;;4973891;28;20216;-78
2021/04/25 13:07:24;;;;;;;0.70;0.70;;;11.40;68.90;;;;;;4974971;28;20223;-77
2021/04/25 13:10:26;;;;;;;0.63;0.63;;;11.40;68.90;;;;;;4976233;28;20228;-76
2021/04/25 13:12:55;;;;;;;0.80;0.80;;;11.30;68.90;;;;;;4961132;28;20212;-76
2021/04/25 13:15:34;;;;;;;0.70;0.70;;;11.40;69.40;;;;;;4961274;28;20239;-77
2021/04/25 13:18:03;;;;;;;0.60;0.60;;;11.30;69.60;;;;;;4961526;28;20205;-78
2021/04/25 13:20:35;;;;;;;0.65;0.65;;;11.40;69.90;;;;;;4959745;28;20257;-77
2021/04/25 13:23:07;;;;;;;0.60;0.60;;;11.50;70.20;;;;;;4978447;28;20267;-77
2021/04/25 13:25:36;;;;;;;0.70;0.70;;;11.40;70.10;;;;;;4979631;28;20625;-77
2021/04/25 13:28:07;;;;;;;0.73;0.73;;;11.50;70.40;;;;;;4979648;28;20236;-77
2021/04/25 13:30:40;;;;;;;0.70;0.70;;;11.60;70.50;;;;;;4978707;28;20572;-78
2021/04/25 13:33:11;;;;;;;0.70;0.70;;;11.80;69.90;;;;;;4980492;28;20203;-79
2021/04/25 13:35:38;;;;;;;0.70;0.70;;;11.50;70.70;;;;;;4979449;28;20231;-78
2021/04/25 13:38:06;;;;;;;0.60;0.60;;;11.80;71.90;;;;;;4978964;28;20928;-78
2021/04/25 13:40:34;;;;;;;0.70;0.70;;;12.40;70.70;;;;;;4979867;28;20600;-78
2021/04/25 13:43:03;;;;;;;0.70;0.70;;;12.20;69.70;;;;;;4978319;28;20639;-80
2021/04/25 13:45:31;;;;;;;0.60;0.60;;;12.20;70.50;;;;;;4980489;28;20220;-79
2021/04/25 13:47:59;;;;;;;0.60;0.60;;;11.80;69.00;;;;;;4979952;28;20209;-79
2021/04/25 13:50:26;;;;;;;0.70;0.70;;;11.40;71.00;;;;;;4979331;28;20603;-78
2021/04/25 13:52:53;;;;;;;0.70;0.70;;;11.20;72.50;;;;;;4979267;28;20208;-78
2021/04/25 13:55:22;;;;;;;0.60;0.60;;;11.10;71.30;;;;;;4971850;28;20228;-77
2021/04/25 13:57:50;;;;;;;0.75;0.75;;;11.20;72.10;;;;;;4971940;28;20204;-77
2021/04/25 14:00:19;;;;;;;0.73;0.73;;;11.00;72.30;;;;;;4971604;28;20745;-77
2021/04/25 14:02:47;;;;;;;0.70;0.70;;;11.30;75.90;;;;;;4978931;28;20675;-82
2021/04/25 14:05:14;;;;;;;0.80;0.80;;;11.00;78.00;;;;;;4979769;28;20201;-82
2021/04/25 14:07:41;;;;;;;0.70;0.70;;;11.30;76.60;;;;;;4980323;28;20205;-82
2021/04/25 14:10:12;;;;;;;0.70;0.70;;;11.40;74.00;;;;;;4979620;28;20693;-82
2021/04/25 14:12:40;;;;;;;0.60;0.60;;;11.60;72.70;;;;;;4979550;28;20197;-79
2021/04/25 14:15:08;;;;;;;0.60;0.60;;;11.80;72.60;;;;;;4975151;28;20228;-81
2021/04/25 14:17:35;;;;;;;0.70;0.70;;;11.60;72.00;;;;;;4979280;28;20201;-80
2021/04/25 14:20:04;;;;;;;0.60;0.60;;;11.80;71.00;;;;;;4980349;28;20687;-79
2021/04/25 14:22:31;;;;;;;0.60;0.60;;;11.50;69.90;;;;;;4984565;28;20193;-77
2021/04/25 14:25:14;;;;;;;0.68;0.68;;;11.40;71.50;;;;;;4991874;28;20661;-76
2021/04/25 14:27:43;;;;;;;0.70;0.70;;;11.40;71.50;;;;;;4976120;28;20204;-76
2021/04/25 14:30:11;;;;;;;0.70;0.70;;;11.20;74.50;;;;;;4977646;28;20225;-74
2021/04/25 14:32:39;;;;;;;0.73;0.73;;;11.00;76.40;;;;;;4981133;28;20209;-74
2021/04/25 14:35:07;;;;;;;0.60;0.60;;;11.00;75.60;;;;;;4976812;28;20291;-75
2021/04/25 14:37:34;;;;;;;0.63;0.63;;;11.20;75.90;;;;;;4976128;28;20259;-76
2021/04/25 14:40:03;;;;;;;0.70;0.70;;;11.40;74.70;;;;;;4975613;28;20233;-76
2021/04/25 14:42:30;;;;;;;0.60;0.60;;;11.50;73.40;;;;;;4975124;28;20362;-76
2021/04/25 14:44:58;;;;;;;0.70;0.70;;;11.20;73.80;;;;;;4974378;28;20716;-76
2021/04/25 14:47:25;;;;;;;0.70;0.70;;;11.40;73.80;;;;;;4974574;28;20600;-75
2021/04/25 14:49:52;;;;;;;0.65;0.65;;;11.10;74.00;;;;;;4974052;28;20240;-77
2021/04/25 14:52:19;;;;;;;0.60;0.60;;;11.20;74.00;;;;;;4974362;28;20240;-77
2021/04/25 14:54:45;;;;;;;0.70;0.70;;;11.20;74.20;;;;;;4973293;28;20196;-76
2021/04/25 14:57:12;;;;;;;0.70;0.70;;;10.90;79.30;;;;;;4974499;28;20304;-76
2021/04/25 14:59:39;;;;;;;0.70;0.70;;;10.60;88.60;;;;;;4974783;28;20260;-76
2021/04/25 15:02:07;;;;;;;0.60;0.60;;;10.40;86.90;;;;;;4974672;28;20208;-76
2021/04/25 15:04:34;;;;;;;0.60;0.60;;;10.30;89.10;;;;;;4974218;28;20209;-76
2021/04/25 15:07:04;;;;;;;0.60;0.60;;;10.40;88.30;;;;;;4974063;28;20693;-76
2021/04/25 15:09:30;;;;;;;0.80;0.80;;;10.10;89.50;;;;;;4974375;28;20308;-76
2021/04/25 15:11:57;;;;;;;0.82;0.82;;;9.90;97.90;;;;;;4973935;28;20251;-76
2021/04/25 15:14:24;;;;;;;0.80;0.80;;;10.20;97.10;;;;;;4973699;28;20283;-76
2021/04/25 15:16:51;;;;;;;0.80;0.80;;;10.90;95.90;;;;;;4973754;28;20221;-76
2021/04/25 15:19:19;;;;;;;0.60;0.60;;;11.40;93.10;;;;;;4974547;28;20229;-77
2021/04/25 15:21:46;;;;;;;0.70;0.70;;;11.60;91.60;;;;;;4974749;28;20244;-76
2021/04/25 15:24:12;;;;;;;0.63;0.63;;;11.90;87.70;;;;;;4975056;28;20204;-76
2021/04/25 15:26:39;;;;;;;0.60;0.60;;;11.70;84.20;;;;;;4974097;28;20622;-76
2021/04/25 15:29:06;;;;;;;0.70;0.70;;;11.90;83.50;;;;;;4973633;28;20221;-76
2021/04/25 15:31:46;;;;;;;0.70;0.70;;;11.40;83.70;;;;;;4973733;28;20299;-76
2021/04/25 15:34:13;;;;;;;0.70;0.70;;;11.70;82.40;;;;;;4973487;28;20224;-76
2021/04/25 15:36:43;;;;;;;0.60;0.60;;;11.90;82.30;;;;;;4974175;28;20571;-76
2021/04/25 15:39:13;;;;;;;0.70;0.70;;;12.00;80.80;;;;;;4973626;28;20288;-76
2021/04/25 15:41:41;;;;;;;0.60;0.60;;;11.50;79.30;;;;;;4974303;28;20211;-75
2021/04/25 15:44:09;;;;;;;0.65;0.65;;;11.20;78.90;;;;;;4973302;28;20269;-76
2021/04/25 15:46:36;;;;;;;0.82;0.82;;;11.00;81.20;;;;;;4973996;28;20204;-79
2021/04/25 15:49:04;;;;;;;0.70;0.70;;;10.70;99.90;;;;;;4975304;28;20204;-76
2021/04/25 15:51:31;;;;;;;0.70;0.70;;;10.60;80.60;;;;;;4973475;28;20209;-76
2021/04/25 15:53:59;;;;;;;0.80;0.80;;;10.80;81.20;;;;;;4973181;28;20205;-76
2021/04/25 15:56:26;;;;;;;0.70;0.70;;;10.90;80.70;;;;;;4973552;28;20232;-76
2021/04/25 15:58:53;;;;;;;0.75;0.75;;;10.60;99.90;;;;;;4972627;28;20204;-75
2021/04/25 16:01:19;;;;;;;0.70;0.70;;;10.70;81.60;;;;;;4972641;28;20259;-78
2021/04/25 16:03:46;;;;;;;0.70;0.70;;;10.60;82.20;;;;;;4973983;28;20259;-77
2021/04/25 16:06:14;;;;;;;0.80;0.80;;;10.10;87.50;;;;;;4976442;28;20211;-78
2021/04/25 16:08:41;;;;;;;0.80;0.80;;;9.60;91.30;;;;;;4975334;28;20243;-77
2021/04/25 16:11:09;;;;;;;0.83;0.83;;;9.30;92.00;;;;;;4963739;28;20245;-76
2021/04/25 16:13:36;;;;;;;0.87;0.87;;;8.90;94.40;;;;;;4977321;28;20197;-77
2021/04/25 16:16:04;;;;;;;0.90;0.90;;;8.70;96.70;;;;;;4977531;28;20220;-77
2021/04/25 16:18:31;;;;;;;0.90;0.90;;;8.70;98.70;;;;;;4976073;28;20208;-77
2021/04/25 16:20:58;;;;;;;1.00;1.00;;;8.60;99.90;;;;;;4974829;28;20224;-76
2021/04/25 16:23:25;;;;;;;0.80;0.80;;;8.40;99.90;;;;;;4973991;28;20216;-78
2021/04/25 16:25:52;;;;;;;0.80;0.80;;;8.30;99.90;;;;;;4975461;28;20668;-79
2021/04/25 16:28:21;;;;;;;1.00;1.00;;;8.10;99.90;;;;;;4976120;28;20240;-79
2021/04/25 16:30:47;;;;;;;0.90;0.90;;;7.80;99.90;;;;;;4977159;28;20228;-81
2021/04/25 16:33:14;;;;;;;1.00;1.00;;;7.60;99.90;;;;;;4977577;28;20255;-78
2021/04/25 16:35:41;;;;;;;0.90;0.90;;;7.50;99.90;;;;;;4973116;28;20219;-78
2021/04/25 16:38:09;;;;;;;1.00;1.00;;;7.40;99.90;;;;;;4972903;28;20196;-78
2021/04/25 16:40:35;;;;;;;0.77;0.77;;;7.40;99.90;;;;;;4998500;23;20227;-79
2021/04/25 16:43:03;;;;;;;0.97;0.97;;;7.50;99.90;;;;;;4989319;28;20283;-79
2021/04/25 16:45:30;;;;;;;1.00;1.00;;;7.60;99.90;;;;;;4993882;28;20262;-79
2021/04/25 16:48:02;;;;;;;1.10;1.10;;;7.60;99.90;;;;;;4993880;28;20211;-78
2021/04/25 16:50:29;;;;;;;1.00;1.00;;;7.90;99.90;;;;;;4994964;28;20263;-78
2021/04/25 16:52:56;;;;;;;0.90;0.90;;;8.00;99.90;;;;;;4986750;28;20224;-78
2021/04/25 16:55:24;;;;;;;0.80;0.80;;;8.10;99.90;;;;;;4996724;28;20203;-77
2021/04/25 16:57:53;;;;;;;0.90;0.90;;;8.20;99.90;;;;;;4987534;28;20206;-78
2021/04/25 17:00:20;;;;;;;0.80;0.80;;;8.20;99.90;;;;;;4994786;28;20271;-78
2021/04/25 17:02:48;;;;;;;0.70;0.70;;;8.60;99.90;;;;;;4990772;28;20327;-78
2021/04/25 17:05:15;;;;;;;0.90;0.90;;;9.00;99.90;;;;;;4986578;28;20576;-78
2021/04/25 17:07:44;;;;;;;0.75;0.75;;;9.30;99.90;;;;;;4984715;28;20197;-79
2021/04/25 17:10:14;;;;;;;0.90;0.90;;;9.70;99.90;;;;;;4983475;28;20283;-79
2021/04/25 17:12:42;;;;;;;0.70;0.70;;;10.00;99.90;;;;;;4981534;28;20200;-79
2021/04/25 17:15:13;;;;;;;0.80;0.80;;;9.90;99.90;;;;;;4994056;28;20212;-79
2021/04/25 17:17:40;;;;;;;0.82;0.82;;;10.10;99.90;;;;;;4998183;28;20203;-79